createdAt,value
2018-05-08T00:00:11.080Z,68.87
2018-05-08T00:01:11.250Z,68.29
2018-05-08T00:02:11.416Z,67.72
2018-05-08T00:03:11.582Z,67.24
2018-05-08T00:04:11.746Z,66.86
2018-05-08T00:05:11.912Z,67.05
2018-05-08T00:06:12.084Z,66.86
2018-05-08T00:07:12.246Z,66.96
2018-05-08T00:08:12.411Z,66.96
2018-05-08T00:09:12.582Z,67.72
2018-05-08T00:10:12.744Z,68.01
2018-05-08T00:11:12.910Z,67.43
2018-05-08T00:12:13.075Z,66.96
2018-05-08T00:13:13.241Z,67.05
2018-05-08T00:15:55.527Z,67.63
2018-05-08T00:16:55.688Z,68.10
2018-05-08T00:17:55.853Z,68.58
2018-05-08T00:18:56.017Z,66.47
2018-05-08T00:19:56.192Z,66.57
2018-05-08T00:20:56.348Z,64.66
2018-05-08T00:21:56.514Z,64.95
2018-05-08T00:22:56.677Z,65.71
2018-05-08T00:23:56.845Z,64.37
2018-05-08T00:24:57.009Z,64.15
2018-05-08T00:25:57.175Z,64.37
2018-05-08T00:26:57.342Z,63.29
2018-05-08T00:27:57.508Z,63.13
2018-05-08T00:28:57.671Z,62.52
2018-05-08T00:29:57.838Z,62.62
2018-05-08T00:32:40.381Z,61.66
2018-05-08T00:33:40.547Z,60.42
2018-05-08T00:34:40.716Z,60.04
2018-05-08T00:35:40.876Z,58.98
2018-05-08T00:36:41.046Z,57.75
2018-05-08T00:37:41.222Z,56.98
2018-05-08T00:38:41.394Z,57.46
2018-05-08T00:39:41.560Z,57.36
2018-05-08T00:40:41.726Z,56.88
2018-05-08T00:41:41.907Z,55.45
2018-05-08T00:42:42.054Z,55.26
2018-05-08T00:43:42.218Z,54.30
2018-05-08T00:44:42.384Z,53.34
2018-05-08T00:45:42.553Z,51.62
2018-05-08T00:46:42.717Z,50.76
2018-05-08T00:49:25.278Z,49.71
2018-05-08T00:50:25.441Z,50.09
2018-05-08T00:51:25.605Z,50.19
2018-05-08T00:52:25.772Z,51.81
2018-05-08T00:53:25.937Z,49.23
2018-05-08T00:54:26.103Z,48.28
2018-05-08T00:55:26.270Z,45.79
2018-05-08T00:56:26.435Z,46.82
2018-05-08T00:57:26.601Z,46.53
2018-05-08T00:58:26.767Z,44.34
2018-05-08T00:59:26.939Z,43.00
2018-05-08T01:00:27.098Z,41.95
2018-05-08T01:01:27.265Z,42.04
2018-05-08T01:02:27.431Z,40.70
2018-05-08T01:03:27.592Z,40.42
2018-05-08T01:06:09.853Z,37.46
2018-05-08T01:07:10.019Z,37.17
2018-05-08T01:08:10.185Z,35.83
2018-05-08T01:09:10.348Z,36.02
2018-05-08T01:10:10.514Z,34.69
2018-05-08T01:11:10.682Z,33.54
2018-05-08T01:12:10.846Z,32.97
2018-05-08T01:13:11.013Z,33.73
2018-05-08T01:14:11.179Z,33.54
2018-05-08T01:15:11.346Z,34.20
2018-05-08T01:17:53.896Z,33.73
2018-05-08T01:18:54.063Z,34.30
2018-05-08T01:19:54.227Z,35.26
2018-05-08T01:20:54.393Z,34.20
2018-05-08T01:21:54.556Z,34.30
2018-05-08T01:22:54.720Z,33.06
2018-05-08T01:23:54.882Z,32.68
2018-05-08T01:24:55.047Z,30.58
2018-05-08T01:25:55.212Z,30.27
2018-05-08T01:26:55.379Z,30.48
2018-05-08T01:29:37.948Z,26.93
2018-05-08T01:30:38.111Z,26.64
2018-05-08T01:31:38.276Z,26.64
2018-05-08T01:32:38.437Z,25.88
2018-05-08T01:33:38.603Z,25.12
2018-05-08T01:34:38.770Z,23.88
2018-05-08T01:35:38.931Z,22.54
2018-05-08T01:36:39.096Z,23.59
2018-05-08T01:37:39.265Z,22.54
2018-05-08T01:38:39.427Z,21.11
2018-05-08T01:41:21.689Z,21.68
2018-05-08T01:42:21.852Z,20.53
2018-05-08T01:43:22.104Z,19.86
2018-05-08T01:44:22.180Z,19.20
2018-05-08T01:45:22.346Z,18.91
2018-05-08T01:46:22.513Z,17.47
2018-05-08T01:47:22.677Z,15.75
2018-05-08T01:48:22.840Z,13.55
2018-05-08T01:49:23.005Z,13.28
2018-05-08T01:50:23.170Z,13.93
2018-05-08T01:53:05.721Z,13.46
2018-05-08T01:54:05.883Z,13.18
2018-05-08T01:55:06.048Z,12.99
2018-05-08T01:56:06.214Z,13.08
2018-05-08T01:57:06.379Z,13.65
2018-05-08T01:58:06.547Z,14.32
2018-05-08T01:59:06.708Z,14.13
2018-05-08T02:00:06.874Z,14.23
2018-05-08T02:01:07.038Z,13.85
2018-05-08T02:02:07.202Z,14.13
2018-05-08T02:04:49.764Z,14.04
2018-05-08T02:05:49.932Z,14.70
2018-05-08T02:06:50.096Z,14.32
2018-05-08T02:07:50.261Z,14.80
2018-05-08T02:08:50.433Z,14.70
2018-05-08T02:09:50.591Z,14.23
2018-05-08T02:10:51.503Z,13.65
2018-05-08T02:11:50.913Z,13.94
2018-05-08T02:12:51.078Z,13.75
2018-05-08T02:13:51.244Z,13.36
2018-05-08T02:16:33.794Z,12.60
2018-05-08T02:17:33.960Z,12.12
2018-05-08T02:18:34.124Z,13.17
2018-05-08T02:19:34.290Z,11.65
2018-05-08T02:20:34.456Z,11.36
2018-05-08T02:21:34.619Z,9.35
2018-05-08T02:22:34.785Z,8.69
2018-05-08T02:23:34.947Z,8.50
2018-05-08T02:24:35.110Z,8.21
2018-05-08T02:25:35.278Z,7.82
2018-05-08T02:28:17.837Z,8.01
2018-05-08T02:29:18.000Z,7.64
2018-05-08T02:30:18.173Z,7.16
2018-05-08T02:31:18.330Z,6.87
2018-05-08T02:32:18.497Z,6.39
2018-05-08T02:33:18.658Z,6.39
2018-05-08T02:34:18.835Z,5.91
2018-05-08T02:35:18.989Z,5.25
2018-05-08T02:36:19.157Z,4.77
2018-05-08T02:37:19.394Z,5.63
2018-05-08T02:40:01.585Z,5.34
2018-05-08T02:41:01.752Z,4.96
2018-05-08T02:42:01.916Z,4.39
2018-05-08T02:43:02.081Z,5.34
2018-05-08T02:44:02.245Z,5.44
2018-05-08T02:45:02.409Z,5.53
2018-05-08T02:46:02.572Z,5.34
2018-05-08T02:47:02.738Z,5.34
2018-05-08T02:48:02.903Z,4.77
2018-05-08T02:49:03.066Z,5.91
2018-05-08T02:50:03.232Z,6.20
2018-05-08T02:51:03.396Z,6.58
2018-05-08T02:52:03.564Z,5.53
2018-05-08T02:53:03.726Z,4.39
2018-05-08T02:54:03.889Z,4.58
2018-05-08T02:59:14.868Z,5.44
2018-05-08T03:00:14.664Z,4.86
2018-05-08T03:01:14.827Z,4.96
2018-05-08T03:02:14.984Z,5.63
2018-05-08T03:03:15.147Z,7.44
2018-05-08T03:04:15.312Z,5.72
2018-05-08T03:05:15.475Z,6.58
2018-05-08T03:06:15.639Z,5.72
2018-05-08T03:07:15.804Z,6.39
2018-05-08T03:08:15.968Z,6.10
2018-05-08T03:10:58.530Z,6.39
2018-05-08T03:11:58.701Z,5.15
2018-05-08T03:12:58.868Z,5.44
2018-05-08T03:13:59.027Z,4.48
2018-05-08T03:14:59.185Z,5.05
2018-05-08T03:15:59.354Z,4.77
2018-05-08T03:16:59.514Z,5.15
2018-05-08T03:17:59.678Z,5.15
2018-05-08T03:18:59.844Z,4.86
2018-05-08T03:20:00.009Z,4.10
2018-05-08T03:21:00.173Z,4.77
2018-05-08T03:22:00.339Z,4.29
2018-05-08T03:23:00.502Z,4.10
2018-05-08T03:24:00.665Z,4.58
2018-05-08T03:25:00.833Z,4.58
2018-05-08T03:27:43.092Z,2.67
2018-05-08T03:28:43.259Z,2.76
2018-05-08T03:29:43.424Z,2.09
2018-05-08T03:30:43.589Z,1.62
2018-05-08T03:31:43.752Z,1.53
2018-05-08T03:32:43.917Z,0.85
2018-05-08T03:33:44.088Z,1.62
2018-05-08T03:34:44.250Z,2.00
2018-05-08T03:35:44.413Z,1.33
2018-05-08T03:36:44.578Z,1.43
2018-05-08T03:37:44.742Z,0.28
2018-05-08T03:38:44.903Z,0.67
2018-05-08T03:39:45.068Z,0.28
2018-05-08T03:40:45.229Z,0.19
2018-05-08T03:41:45.390Z,0.19
2018-05-08T03:44:27.951Z,0.00
2018-05-08T03:45:28.115Z,0.19
2018-05-08T03:46:28.274Z,0.00
2018-05-08T03:47:28.438Z,0.00
2018-05-08T03:48:28.602Z,0.00
2018-05-08T03:49:28.768Z,0.00
2018-05-08T03:50:28.931Z,0.00
2018-05-08T03:51:29.094Z,0.00
2018-05-08T03:52:29.256Z,0.00
2018-05-08T03:53:29.422Z,0.00
2018-05-08T03:56:11.971Z,0.00
2018-05-08T03:57:12.138Z,0.00
2018-05-08T03:58:12.299Z,0.00
2018-05-08T03:59:12.467Z,0.00
2018-05-08T04:00:12.629Z,0.00
2018-05-08T04:01:12.795Z,0.00
2018-05-08T04:02:12.955Z,0.00
2018-05-08T04:03:13.123Z,0.00
2018-05-08T04:04:13.283Z,0.00
2018-05-08T04:05:13.448Z,0.00
2018-05-08T04:07:55.706Z,0.00
2018-05-08T04:08:55.871Z,0.00
2018-05-08T04:09:56.033Z,0.00
2018-05-08T04:10:56.198Z,0.00
2018-05-08T04:11:56.366Z,0.00
2018-05-08T04:12:56.530Z,0.00
2018-05-08T04:13:56.721Z,0.00
2018-05-08T04:14:56.883Z,0.00
2018-05-08T04:15:57.049Z,0.00
2018-05-08T04:16:57.206Z,0.00
2018-05-08T04:17:57.368Z,0.00
2018-05-08T04:18:57.533Z,0.00
2018-05-08T04:19:57.697Z,0.00
2018-05-08T04:20:57.871Z,0.00
2018-05-08T04:21:58.023Z,0.00
2018-05-08T04:24:40.274Z,0.00
2018-05-08T04:25:40.437Z,0.00
2018-05-08T04:26:40.599Z,0.00
2018-05-08T04:27:40.774Z,0.00
2018-05-08T04:28:40.936Z,0.00
2018-05-08T04:29:41.100Z,0.00
2018-05-08T04:30:48.715Z,0.00
2018-05-08T04:31:41.371Z,0.00
2018-05-08T04:32:41.537Z,0.00
2018-05-08T04:33:42.331Z,0.00
2018-05-08T04:34:41.875Z,0.00
2018-05-08T04:37:16.919Z,0.00
2018-05-08T04:38:17.093Z,0.00
2018-05-08T04:39:17.272Z,0.00
2018-05-08T04:40:17.423Z,0.00
2018-05-08T04:41:17.579Z,0.00
2018-05-08T04:42:17.746Z,0.00
2018-05-08T04:43:17.911Z,0.00
2018-05-08T04:44:18.073Z,0.00
2018-05-08T04:45:18.247Z,0.00
2018-05-08T04:46:18.445Z,0.00
2018-05-08T04:48:50.711Z,0.00
2018-05-08T04:49:50.869Z,0.00
2018-05-08T04:50:51.032Z,0.00
2018-05-08T04:51:51.199Z,0.00
2018-05-08T04:52:51.367Z,0.00
2018-05-08T04:53:51.517Z,0.00
2018-05-08T04:54:51.702Z,0.09
2018-05-08T04:55:51.870Z,0.57
2018-05-08T04:56:52.012Z,1.53
2018-05-08T04:57:52.203Z,0.85
2018-05-08T04:58:52.351Z,1.72
2018-05-08T04:59:52.523Z,1.72
2018-05-08T05:00:52.812Z,2.38
2018-05-08T05:01:52.828Z,1.62
2018-05-08T05:02:52.980Z,2.58
2018-05-08T05:05:43.825Z,2.29
2018-05-08T05:06:35.857Z,2.67
2018-05-08T05:07:36.037Z,1.33
2018-05-08T05:08:36.187Z,1.53
2018-05-08T05:09:36.355Z,0.48
2018-05-08T05:10:37.305Z,0.00
2018-05-08T05:11:36.714Z,0.19
2018-05-08T05:12:36.907Z,1.14
2018-05-08T05:13:44.872Z,3.05
2018-05-08T05:14:37.265Z,2.39
2018-05-08T05:15:37.430Z,3.24
2018-05-08T05:16:37.607Z,4.10
2018-05-08T05:17:37.760Z,3.72
2018-05-08T05:18:37.922Z,2.95
2018-05-08T05:19:38.085Z,3.44
2018-05-08T05:20:38.250Z,3.44
2018-05-08T05:21:38.562Z,3.53
2018-05-08T05:22:38.666Z,2.39
2018-05-08T05:23:38.768Z,2.76
2018-05-08T05:24:38.931Z,3.05
2018-05-08T05:25:40.803Z,3.34
2018-05-08T05:26:39.845Z,3.72
2018-05-08T05:27:39.376Z,3.53
2018-05-08T05:30:11.953Z,4.01
2018-05-08T05:31:12.143Z,4.10
2018-05-08T05:32:12.321Z,4.49
2018-05-08T05:33:12.492Z,4.68
2018-05-08T05:34:12.668Z,4.77
2018-05-08T05:35:20.535Z,4.77
2018-05-08T05:36:12.998Z,5.35
2018-05-08T05:37:13.176Z,4.96
2018-05-08T05:38:13.333Z,4.49
2018-05-08T05:39:13.499Z,6.59
2018-05-08T05:40:13.664Z,7.54
2018-05-08T05:41:13.829Z,7.45
2018-05-08T05:42:13.991Z,8.31
2018-05-08T05:43:14.157Z,7.74
2018-05-08T05:44:14.338Z,10.13
2018-05-08T05:45:14.495Z,9.08
2018-05-08T05:46:14.675Z,11.18
2018-05-08T05:47:14.830Z,12.62
2018-05-08T05:48:14.994Z,13.57
2018-05-08T05:49:15.155Z,14.15
2018-05-08T05:52:47.593Z,44.06
2018-05-08T05:53:47.759Z,52.14
2018-05-08T05:54:47.923Z,65.30
2018-05-08T05:55:48.093Z,72.81
2018-05-08T05:56:55.716Z,78.80
2018-05-08T05:57:48.382Z,83.31
2018-05-08T05:58:48.545Z,86.24
2018-05-08T05:59:48.712Z,89.16
2018-05-08T06:00:48.881Z,91.18
2018-05-08T06:01:49.048Z,91.71
2018-05-08T06:02:49.217Z,92.38
2018-05-08T06:03:49.393Z,92.38
2018-05-08T06:04:49.554Z,92.52
2018-05-08T06:05:49.715Z,91.85
2018-05-08T06:06:49.891Z,91.46
2018-05-08T06:07:50.052Z,90.55
2018-05-08T06:08:50.219Z,89.97
2018-05-08T06:09:50.392Z,89.68
2018-05-08T06:10:50.566Z,89.39
2018-05-08T06:13:22.924Z,90.35
2018-05-08T06:14:22.966Z,90.06
2018-05-08T06:15:23.129Z,90.83
2018-05-08T06:16:23.297Z,91.36
2018-05-08T06:17:23.456Z,90.98
2018-05-08T06:18:23.643Z,91.08
2018-05-08T06:19:23.807Z,89.78
2018-05-08T06:20:24.018Z,90.94
2018-05-08T06:21:24.144Z,89.78
2018-05-08T06:22:24.313Z,88.78
2018-05-08T06:24:56.594Z,82.84
2018-05-08T06:25:56.763Z,83.03
2018-05-08T06:27:04.897Z,83.26
2018-05-08T06:27:57.060Z,84.60
2018-05-08T06:28:57.227Z,85.37
2018-05-08T06:29:57.384Z,84.60
2018-05-08T06:30:57.544Z,84.12
2018-05-08T06:31:57.723Z,85.37
2018-05-08T06:32:57.886Z,84.80
2018-05-08T06:33:58.052Z,84.31
2018-05-08T06:34:58.220Z,83.12
2018-05-08T06:35:58.385Z,82.49
2018-05-08T06:36:58.551Z,82.20
2018-05-08T06:37:58.725Z,84.41
2018-05-08T06:38:58.937Z,85.28
2018-05-08T06:39:59.128Z,86.05
2018-05-08T06:42:31.342Z,86.76
2018-05-08T06:43:31.509Z,86.62
2018-05-08T06:44:31.689Z,85.57
2018-05-08T06:45:31.864Z,85.57
2018-05-08T06:46:32.031Z,85.80
2018-05-08T06:47:32.376Z,87.05
2018-05-08T06:48:32.377Z,85.75
2018-05-08T06:49:32.548Z,85.85
2018-05-08T06:50:32.733Z,86.05
2018-05-08T06:51:32.900Z,86.95
2018-05-08T06:52:33.073Z,87.24
2018-05-08T06:53:33.262Z,87.72
2018-05-08T06:54:33.428Z,88.30
2018-05-08T06:55:33.591Z,87.53
2018-05-08T06:56:33.770Z,89.78
2018-05-08T06:59:16.048Z,91.66
2018-05-08T07:00:16.209Z,91.08
2018-05-08T07:01:16.414Z,88.48
2018-05-08T07:02:16.579Z,90.64
2018-05-08T07:03:16.717Z,91.89
2018-05-08T07:04:17.555Z,91.70
2018-05-08T07:05:16.980Z,93.15
2018-05-08T07:06:17.157Z,92.85
2018-05-08T07:07:17.321Z,92.18
2018-05-08T07:08:17.480Z,92.42
2018-05-08T07:09:25.635Z,92.13
2018-05-08T07:10:18.582Z,91.36
2018-05-08T07:11:17.875Z,92.28
2018-05-08T07:12:18.046Z,91.51
2018-05-08T07:13:26.189Z,92.38
2018-05-08T07:14:18.383Z,91.89
2018-05-08T07:15:18.514Z,92.76
2018-05-08T07:16:18.738Z,92.18
2018-05-08T07:17:18.849Z,91.89
2018-05-08T07:18:19.014Z,91.99
2018-05-08T07:19:19.180Z,91.89
2018-05-08T07:20:19.348Z,91.75
2018-05-08T07:21:19.528Z,91.75
2018-05-08T07:22:19.697Z,90.97
2018-05-08T07:23:19.872Z,90.97
2018-05-08T07:26:02.430Z,91.17
2018-05-08T07:27:02.603Z,91.27
2018-05-08T07:28:02.792Z,89.53
2018-05-08T07:29:02.941Z,87.90
2018-05-08T07:30:03.116Z,88.95
2018-05-08T07:31:03.278Z,89.82
2018-05-08T07:32:03.447Z,89.72
2018-05-08T07:33:03.615Z,90.34
2018-05-08T07:34:03.786Z,89.09
2018-05-08T07:35:03.956Z,88.81
2018-05-08T07:36:04.125Z,88.13
2018-05-08T07:37:04.294Z,87.17
2018-05-08T07:38:04.464Z,88.76
2018-05-08T07:39:04.632Z,88.85
2018-05-08T07:40:04.798Z,88.61
2018-05-08T07:42:47.081Z,85.05
2018-05-08T07:43:55.232Z,87.02
2018-05-08T07:44:47.395Z,84.76
2018-05-08T07:45:48.147Z,84.28
2018-05-08T07:46:47.703Z,85.24
2018-05-08T07:47:47.871Z,84.56
2018-05-08T07:48:48.041Z,83.03
2018-05-08T07:49:48.217Z,82.06
2018-05-08T07:50:48.378Z,83.61
2018-05-08T07:51:48.592Z,83.80
2018-05-08T07:52:48.717Z,82.64
2018-05-08T07:53:48.881Z,82.78
2018-05-08T07:54:49.065Z,81.66
2018-05-08T07:55:49.247Z,77.03
2018-05-08T07:56:49.415Z,72.12
2018-05-08T07:57:49.575Z,72.89
2018-05-08T07:58:49.766Z,75.59
2018-05-08T08:01:23.386Z,72.89
2018-05-08T08:02:23.531Z,73.99
2018-05-08T08:03:23.851Z,67.43
2018-05-08T08:04:23.943Z,67.91
2018-05-08T08:05:24.058Z,68.26
2018-05-08T08:06:31.895Z,70.96
2018-05-08T08:07:24.494Z,69.42
2018-05-08T08:08:24.602Z,68.19
2018-05-08T08:09:24.854Z,67.33
2018-05-08T08:10:24.929Z,64.34
2018-05-08T08:11:25.105Z,66.72
2018-05-08T08:12:25.308Z,66.04
2018-05-08T08:13:25.442Z,66.66
2018-05-08T08:14:25.613Z,64.34
2018-05-08T08:15:25.783Z,67.04
2018-05-08T08:16:33.895Z,67.78
2018-05-08T08:17:26.143Z,64.92
2018-05-08T08:18:26.269Z,65.20
2018-05-08T08:19:26.428Z,61.93
2018-05-08T08:20:26.580Z,64.66
2018-05-08T08:21:26.753Z,61.35
2018-05-08T08:22:26.919Z,63.57
2018-05-08T08:23:27.092Z,61.64
2018-05-08T08:24:27.266Z,62.89
2018-05-08T08:25:27.432Z,64.15
2018-05-08T08:26:27.612Z,62.12
2018-05-08T08:27:27.783Z,60.13
2018-05-08T08:28:28.017Z,61.19
2018-05-08T08:29:28.112Z,59.00
2018-05-08T08:30:28.288Z,59.38
2018-05-08T08:33:11.790Z,55.16
2018-05-08T08:34:10.925Z,55.57
2018-05-08T08:35:11.098Z,52.87
2018-05-08T08:36:11.276Z,55.77
2018-05-08T08:37:11.448Z,49.97
2018-05-08T08:38:11.617Z,50.45
2018-05-08T08:39:11.800Z,52.19
2018-05-08T08:40:11.955Z,55.09
2018-05-08T08:41:12.136Z,52.58
2018-05-08T08:42:12.305Z,51.81
2018-05-08T08:44:44.987Z,52.58
2018-05-08T08:45:45.179Z,48.90
2018-05-08T08:46:45.350Z,45.42
2018-05-08T08:47:45.599Z,42.62
2018-05-08T08:48:45.690Z,42.62
2018-05-08T08:49:45.867Z,42.33
2018-05-08T08:50:46.033Z,42.04
2018-05-08T08:51:46.203Z,42.33
2018-05-08T08:52:46.376Z,40.88
2018-05-08T08:53:46.549Z,40.78
2018-05-08T08:56:28.822Z,40.47
2018-05-08T08:57:28.997Z,39.70
2018-05-08T08:58:29.180Z,40.59
2018-05-08T08:59:29.347Z,39.99
2018-05-08T09:00:29.533Z,40.57
2018-05-08T09:01:29.685Z,40.59
2018-05-08T09:02:29.856Z,40.50
2018-05-08T09:03:30.034Z,40.01
2018-05-08T09:04:30.201Z,39.72
2018-05-08T09:05:30.355Z,39.82
2018-05-08T09:06:30.523Z,39.53
2018-05-08T09:07:30.697Z,39.72
2018-05-08T09:08:31.865Z,40.69
2018-05-08T09:09:31.031Z,39.72
2018-05-08T09:10:31.202Z,40.01
2018-05-08T09:13:03.487Z,39.72
2018-05-08T09:14:06.503Z,40.20
2018-05-08T09:15:03.793Z,39.04
2018-05-08T09:16:03.968Z,40.01
2018-05-08T09:17:04.139Z,39.34
2018-05-08T09:18:04.308Z,39.41
2018-05-08T09:19:04.475Z,38.64
2018-05-08T09:20:04.650Z,39.51
2018-05-08T09:21:04.825Z,39.70
2018-05-08T09:22:12.640Z,39.22
2018-05-08T09:23:05.187Z,39.62
2018-05-08T09:24:05.356Z,39.99
2018-05-08T09:25:05.530Z,39.92
2018-05-08T09:26:05.693Z,40.01
2018-05-08T09:27:05.955Z,39.92
2018-05-08T09:28:06.027Z,38.95
2018-05-08T09:29:06.205Z,38.48
2018-05-08T09:31:38.487Z,38.20
2018-05-08T09:32:38.482Z,37.52
2018-05-08T09:33:38.784Z,37.90
2018-05-08T09:34:38.900Z,37.90
2018-05-08T09:37:10.959Z,38.76
2018-05-08T09:38:11.133Z,38.37
2018-05-08T09:39:11.303Z,38.28
2018-05-08T09:40:11.485Z,38.85
2018-05-08T09:41:11.661Z,39.36
2018-05-08T09:42:11.888Z,39.64
2018-05-08T09:43:19.999Z,39.84
2018-05-08T09:44:12.162Z,40.52
2018-05-08T09:45:12.333Z,40.23
2018-05-08T09:46:12.500Z,40.15
2018-05-08T09:47:20.361Z,39.64
2018-05-08T09:48:12.760Z,39.47
2018-05-08T09:49:12.971Z,39.16
2018-05-08T09:50:13.117Z,39.45
2018-05-08T09:51:13.271Z,39.74
2018-05-08T09:52:13.444Z,39.94
2018-05-08T09:53:13.611Z,39.86
2018-05-08T09:54:13.809Z,39.37
2018-05-08T09:55:13.974Z,39.47
2018-05-08T09:56:14.141Z,39.76
2018-05-08T09:57:14.320Z,39.95
2018-05-08T09:58:14.489Z,39.26
2018-05-08T09:59:14.663Z,39.55
2018-05-08T10:00:14.828Z,40.05
2018-05-08T10:01:15.000Z,39.76
2018-05-08T10:03:47.699Z,39.37
2018-05-08T10:04:47.920Z,39.47
2018-05-08T10:05:48.033Z,39.86
2018-05-08T10:06:55.370Z,39.28
2018-05-08T10:07:48.409Z,38.60
2018-05-08T10:08:49.329Z,37.54
2018-05-08T10:09:48.757Z,37.94
2018-05-08T10:10:48.919Z,37.65
2018-05-08T10:11:49.127Z,37.82
2018-05-08T10:12:49.257Z,38.12
2018-05-08T10:13:58.369Z,38.41
2018-05-08T10:14:49.651Z,38.02
2018-05-08T10:15:49.823Z,37.63
2018-05-08T10:16:49.983Z,38.12
2018-05-08T10:17:50.154Z,38.31
2018-05-08T10:18:50.331Z,38.21
2018-05-08T10:19:50.497Z,38.02
2018-05-08T10:20:50.675Z,39.09
2018-05-08T10:21:50.841Z,39.47
2018-05-08T10:22:51.013Z,39.76
2018-05-08T10:23:51.182Z,39.76
2018-05-08T10:24:59.010Z,39.49
2018-05-08T10:25:51.561Z,39.67
2018-05-08T10:26:51.840Z,39.76
2018-05-08T10:27:51.893Z,39.97
2018-05-08T10:28:59.517Z,39.88
2018-05-08T10:29:52.901Z,39.88
2018-05-08T10:30:52.324Z,39.86
2018-05-08T10:31:52.495Z,39.78
2018-05-08T10:32:52.750Z,39.86
2018-05-08T10:33:53.398Z,40.44
2018-05-08T10:34:53.063Z,40.44
2018-05-08T10:35:53.243Z,39.88
2018-05-08T10:36:53.410Z,39.29
2018-05-08T10:37:53.579Z,39.01
2018-05-08T10:38:53.751Z,39.01
2018-05-08T10:41:27.035Z,39.69
2018-05-08T10:42:27.204Z,40.07
2018-05-08T10:43:27.376Z,39.67
2018-05-08T10:44:27.546Z,39.67
2018-05-08T10:45:27.720Z,39.67
2018-05-08T10:46:28.624Z,40.61
2018-05-08T10:47:28.077Z,41.00
2018-05-08T10:48:28.254Z,40.42
2018-05-08T10:49:35.644Z,41.11
2018-05-08T10:50:36.039Z,39.76
2018-05-08T10:51:28.724Z,39.67
2018-05-08T10:52:28.891Z,39.95
2018-05-08T10:53:29.067Z,39.39
2018-05-08T10:54:29.315Z,40.36
2018-05-08T10:55:29.377Z,39.39
2018-05-08T10:56:31.103Z,39.01
2018-05-08T10:57:29.658Z,38.43
2018-05-08T10:58:29.868Z,38.13
2018-05-08T10:59:30.041Z,38.81
2018-05-08T11:00:31.104Z,38.04
2018-05-08T11:01:31.099Z,38.13
2018-05-08T11:02:30.516Z,37.75
2018-05-08T11:03:30.692Z,37.96
2018-05-08T11:04:30.858Z,37.77
2018-05-08T11:07:13.229Z,37.28
2018-05-08T11:08:13.339Z,37.28
2018-05-08T11:09:13.399Z,37.59
2018-05-08T11:10:20.727Z,37.69
2018-05-08T11:11:13.799Z,37.59
2018-05-08T11:12:13.938Z,37.19
2018-05-08T11:13:14.138Z,37.49
2018-05-08T11:14:14.558Z,37.79
2018-05-08T11:15:14.424Z,37.69
2018-05-08T11:16:14.588Z,38.15
2018-05-08T11:17:14.786Z,37.87
2018-05-08T11:18:23.695Z,38.25
2018-05-08T11:19:15.117Z,38.54
2018-05-08T11:20:15.389Z,37.77
2018-05-08T11:21:16.012Z,38.15
2018-05-08T11:22:15.844Z,37.94
2018-05-08T11:23:15.777Z,38.23
2018-05-08T11:24:16.128Z,38.33
2018-05-08T11:25:16.323Z,38.23
2018-05-08T11:26:16.276Z,38.13
2018-05-08T11:27:16.497Z,38.04
2018-05-08T11:28:16.736Z,38.06
2018-05-08T11:29:17.209Z,37.17
2018-05-08T11:30:16.958Z,36.60
2018-05-08T11:31:17.125Z,37.28
2018-05-08T11:32:17.289Z,38.23
2018-05-08T11:33:25.467Z,38.62
2018-05-08T11:34:17.602Z,38.54
2018-05-08T11:35:17.774Z,38.62
2018-05-08T11:36:17.956Z,37.94
2018-05-08T11:37:18.118Z,37.57
2018-05-08T11:38:18.287Z,37.57
2018-05-08T11:39:18.818Z,37.59
2018-05-08T11:40:26.260Z,37.11
2018-05-08T11:41:18.676Z,37.49
2018-05-08T11:42:19.717Z,37.30
2018-05-08T11:43:19.013Z,37.49
2018-05-08T11:44:19.210Z,37.69
2018-05-08T11:45:19.385Z,37.69
2018-05-08T11:46:19.545Z,37.30
2018-05-08T11:47:19.713Z,37.69
2018-05-08T11:48:19.988Z,37.30
2018-05-08T11:49:20.611Z,36.82
2018-05-08T11:50:20.503Z,36.91
2018-05-08T11:52:54.184Z,37.21
2018-05-08T11:53:55.162Z,36.91
2018-05-08T11:55:01.776Z,36.72
2018-05-08T11:55:54.572Z,36.43
2018-05-08T11:56:57.532Z,38.58
2018-05-08T11:57:55.118Z,38.78
2018-05-08T11:58:55.162Z,36.93
2018-05-08T11:59:55.369Z,36.54
2018-05-08T12:01:04.548Z,36.35
2018-05-08T12:01:55.647Z,36.16
2018-05-08T12:02:56.475Z,36.16
2018-05-08T12:03:56.189Z,36.44
2018-05-08T12:04:56.148Z,36.16
2018-05-08T12:05:56.300Z,36.44
2018-05-08T12:06:56.493Z,36.54
2018-05-08T12:07:56.661Z,36.35
2018-05-08T12:08:56.828Z,36.54
2018-05-08T12:10:04.194Z,36.44
2018-05-08T12:10:57.204Z,36.25
2018-05-08T12:11:57.903Z,36.35
2018-05-08T12:13:05.477Z,36.25
2018-05-08T12:13:57.641Z,35.96
2018-05-08T12:14:57.816Z,35.48
2018-05-08T12:15:57.991Z,37.13
2018-05-08T12:16:58.155Z,36.83
2018-05-08T12:17:58.323Z,35.77
2018-05-08T12:18:59.030Z,35.57
2018-05-08T12:19:58.708Z,37.90
2018-05-08T12:20:58.883Z,35.59
2018-05-08T12:22:07.029Z,35.67
2018-05-08T12:22:59.191Z,35.38
2018-05-08T12:23:59.382Z,35.19
2018-05-08T12:24:59.555Z,35.21
2018-05-08T12:25:59.958Z,35.30
2018-05-08T12:27:00.137Z,35.57
2018-05-08T12:28:00.134Z,35.67
2018-05-08T12:29:00.243Z,35.57
2018-05-08T12:30:00.419Z,35.57
2018-05-08T12:31:00.578Z,34.89
2018-05-08T12:32:00.792Z,37.23
2018-05-08T12:33:00.925Z,35.77
2018-05-08T12:34:01.095Z,35.01
2018-05-08T12:35:01.267Z,34.62
2018-05-08T12:36:01.444Z,34.89
2018-05-08T12:38:43.721Z,35.28
2018-05-08T12:39:51.056Z,35.66
2018-05-08T12:40:44.135Z,35.75
2018-05-08T12:41:44.397Z,35.67
2018-05-08T12:42:44.519Z,35.66
2018-05-08T12:43:45.260Z,36.83
2018-05-08T12:44:47.237Z,35.75
2018-05-08T12:45:45.054Z,35.17
2018-05-08T12:46:45.082Z,34.59
2018-05-08T12:47:47.262Z,34.88
2018-05-08T12:48:45.458Z,35.27
2018-05-08T12:49:49.776Z,35.46
2018-05-08T12:50:47.049Z,35.07
2018-05-08T12:51:47.902Z,35.56
2018-05-08T12:52:46.357Z,36.04
2018-05-08T12:55:18.807Z,35.86
2018-05-08T12:56:18.859Z,34.41
2018-05-08T12:57:19.022Z,33.92
2018-05-08T12:58:19.191Z,34.14
2018-05-08T12:59:19.353Z,33.07
2018-05-08T13:00:19.533Z,33.15
2018-05-08T13:01:20.439Z,33.36
2018-05-08T13:02:19.855Z,32.96
2018-05-08T13:03:20.032Z,33.15
2018-05-08T13:04:20.201Z,33.75
2018-05-08T13:05:20.391Z,34.33
2018-05-08T13:06:28.498Z,33.17
2018-05-08T13:07:20.653Z,32.00
2018-05-08T13:08:20.821Z,33.26
2018-05-08T13:09:21.004Z,32.20
2018-05-08T13:10:21.178Z,32.00
2018-05-08T13:11:21.392Z,32.59
2018-05-08T13:12:29.703Z,33.17
2018-05-08T13:13:22.357Z,33.07
2018-05-08T13:14:21.885Z,32.10
2018-05-08T13:15:23.513Z,32.00
2018-05-08T13:16:22.190Z,31.44
2018-05-08T13:17:22.393Z,31.52
2018-05-08T13:18:22.781Z,31.71
2018-05-08T13:19:27.062Z,31.42
2018-05-08T13:20:24.314Z,31.42
2018-05-08T13:21:24.203Z,31.42
2018-05-08T13:22:23.254Z,31.23
2018-05-08T13:24:56.533Z,31.32
2018-05-08T13:25:56.680Z,31.71
2018-05-08T13:26:56.915Z,31.04
2018-05-08T13:27:57.130Z,31.32
2018-05-08T13:29:04.369Z,30.85
2018-05-08T13:29:57.284Z,30.27
2018-05-08T13:30:57.515Z,30.76
2018-05-08T13:33:30.011Z,30.65
2018-05-08T13:34:30.190Z,30.66
2018-05-08T13:35:30.359Z,30.37
2018-05-08T13:36:31.354Z,29.88
2018-05-08T13:37:30.759Z,29.68
2018-05-08T13:38:30.930Z,30.08
2018-05-08T13:39:31.102Z,29.97
2018-05-08T13:40:31.271Z,30.18
2018-05-08T13:41:31.442Z,29.60
2018-05-08T13:42:31.631Z,29.48
2018-05-08T13:45:13.909Z,30.16
2018-05-08T13:46:14.074Z,29.87
2018-05-08T13:47:14.930Z,29.97
2018-05-08T13:48:14.407Z,30.26
2018-05-08T13:49:14.585Z,30.45
2018-05-08T13:50:14.691Z,30.45
2018-05-08T13:51:14.862Z,30.37
2018-05-08T13:52:15.034Z,29.98
2018-05-08T13:53:15.205Z,30.08
2018-05-08T13:54:15.376Z,29.69
2018-05-08T13:55:15.545Z,29.50
2018-05-08T13:56:15.708Z,29.60
2018-05-08T13:57:15.879Z,29.69
2018-05-08T13:58:16.051Z,29.98
2018-05-08T13:59:16.270Z,29.88
2018-05-08T14:01:58.496Z,29.88
2018-05-08T14:02:58.668Z,29.88
2018-05-08T14:03:58.841Z,29.79
2018-05-08T14:04:59.012Z,29.98
2018-05-08T14:05:59.181Z,29.88
2018-05-08T14:06:59.358Z,29.87
2018-05-08T14:08:00.032Z,29.79
2018-05-08T14:08:59.700Z,30.37
2018-05-08T14:09:59.876Z,30.18
2018-05-08T14:11:00.046Z,30.18
2018-05-08T14:12:00.214Z,29.60
2018-05-08T14:13:00.454Z,29.50
2018-05-08T14:14:00.561Z,30.27
2018-05-08T14:15:00.726Z,29.98
2018-05-08T14:16:00.897Z,30.76
2018-05-08T14:18:43.719Z,29.60
2018-05-08T14:19:43.880Z,29.98
2018-05-08T14:20:44.055Z,31.34
2018-05-08T14:21:44.225Z,30.18
2018-05-08T14:22:44.403Z,30.57